createdAt,value
2017-04-29T00:01:35.823Z,79.10
2017-04-29T00:04:03.259Z,79.10
2017-04-29T00:06:30.703Z,78.90
2017-04-29T00:08:58.159Z,78.60
2017-04-29T00:11:25.615Z,79.70
2017-04-29T00:13:53.063Z,79.60
2017-04-29T00:16:20.507Z,80.00
2017-04-29T00:18:48.663Z,80.90
2017-04-29T00:21:16.819Z,82.10
2017-04-29T00:23:44.265Z,81.20
2017-04-29T00:26:13.052Z,82.70
2017-04-29T00:28:40.479Z,81.80
2017-04-29T00:31:08.691Z,81.90
2017-04-29T00:33:36.104Z,82.20
2017-04-29T00:36:03.536Z,82.10
2017-04-29T00:38:30.980Z,81.80
2017-04-29T00:40:58.425Z,81.80
2017-04-29T00:43:25.878Z,81.70
2017-04-29T00:45:53.287Z,81.40
2017-04-29T00:48:21.459Z,81.40
2017-04-29T00:50:48.915Z,81.90
2017-04-29T00:53:16.355Z,81.50
2017-04-29T00:55:43.814Z,81.50
2017-04-29T00:58:11.863Z,81.00
2017-04-29T01:00:39.279Z,81.30
2017-04-29T01:03:06.708Z,81.80
2017-04-29T01:05:34.155Z,81.70
2017-04-29T01:08:01.631Z,82.50
2017-04-29T01:10:29.067Z,82.10
2017-04-29T01:12:56.536Z,82.40
2017-04-29T01:15:23.975Z,83.10
2017-04-29T01:17:51.400Z,83.30
2017-04-29T01:20:18.885Z,82.90
2017-04-29T01:22:47.048Z,82.70
2017-04-29T01:25:15.211Z,82.40
2017-04-29T01:27:42.768Z,82.20
2017-04-29T01:30:10.202Z,82.50
2017-04-29T01:32:37.623Z,82.00
2017-04-29T01:35:05.080Z,82.00
2017-04-29T01:37:32.491Z,82.60
2017-04-29T01:39:59.936Z,82.30
2017-04-29T01:42:28.109Z,80.90
2017-04-29T01:44:55.547Z,82.20
2017-04-29T01:47:23.723Z,81.50
2017-04-29T01:49:51.180Z,82.10
2017-04-29T01:52:18.603Z,81.70
2017-04-29T01:54:46.079Z,81.40
2017-04-29T01:57:13.575Z,80.40
2017-04-29T01:59:40.996Z,81.30
2017-04-29T02:02:08.915Z,81.80
2017-04-29T02:04:36.370Z,82.40
2017-04-29T02:07:03.786Z,83.60
2017-04-29T02:09:31.246Z,83.10
2017-04-29T02:11:58.696Z,82.70
2017-04-29T02:14:26.148Z,82.10
2017-04-29T02:16:53.575Z,81.70
2017-04-29T02:19:21.026Z,82.50
2017-04-29T02:21:48.439Z,83.00
2017-04-29T02:24:15.875Z,83.20
2017-04-29T02:26:43.347Z,83.80
2017-04-29T02:29:10.767Z,84.00
2017-04-29T02:31:38.187Z,84.40
2017-04-29T02:34:05.647Z,85.00
2017-04-29T02:36:33.087Z,84.60
2017-04-29T02:39:00.499Z,84.30
2017-04-29T02:41:27.951Z,84.70
2017-04-29T02:43:55.372Z,84.70
2017-04-29T02:46:22.792Z,84.60
2017-04-29T02:48:50.255Z,84.30
2017-04-29T02:51:17.667Z,84.20
2017-04-29T02:53:44.351Z,84.20
2017-04-29T02:56:12.322Z,84.80
2017-04-29T02:58:39.755Z,85.60
2017-04-29T03:01:07.179Z,85.40
2017-04-29T03:03:34.628Z,85.70
2017-04-29T03:06:02.051Z,85.70
2017-04-29T03:08:29.491Z,86.00
2017-04-29T03:10:56.971Z,85.60
2017-04-29T03:13:24.424Z,86.30
2017-04-29T03:15:52.583Z,86.30
2017-04-29T03:18:20.771Z,85.50
2017-04-29T03:20:48.199Z,85.60
2017-04-29T03:23:15.620Z,85.50
2017-04-29T03:25:43.819Z,86.30
2017-04-29T03:28:11.991Z,84.60
2017-04-29T03:30:39.407Z,84.70
2017-04-29T03:33:06.845Z,85.70
2017-04-29T03:35:34.284Z,86.10
2017-04-29T03:38:01.695Z,85.10
2017-04-29T03:40:29.126Z,85.60
2017-04-29T03:42:56.546Z,85.70
2017-04-29T03:45:23.987Z,85.50
2017-04-29T03:47:51.416Z,84.70
2017-04-29T03:50:18.835Z,85.30
2017-04-29T03:52:46.268Z,85.00
2017-04-29T03:55:13.738Z,84.70
2017-04-29T03:57:41.663Z,85.10
2017-04-29T04:00:09.112Z,84.50
2017-04-29T04:02:36.562Z,85.40
2017-04-29T04:05:03.995Z,85.00
2017-04-29T04:07:31.446Z,84.60
2017-04-29T04:09:58.916Z,84.60
2017-04-29T04:12:26.356Z,86.00
2017-04-29T04:14:53.796Z,85.10
2017-04-29T04:17:21.245Z,84.80
2017-04-29T04:19:48.666Z,85.20
2017-04-29T04:22:16.107Z,85.20
2017-04-29T04:24:43.622Z,85.60
2017-04-29T04:27:11.055Z,85.70
2017-04-29T04:29:38.804Z,85.20
2017-04-29T04:32:06.271Z,85.10
2017-04-29T04:34:33.703Z,84.20
2017-04-29T04:37:01.124Z,85.00
2017-04-29T04:39:28.602Z,85.00
2017-04-29T04:41:56.003Z,85.20
2017-04-29T04:44:23.451Z,84.40
2017-04-29T04:46:50.910Z,84.70
2017-04-29T04:49:18.331Z,84.20
2017-04-29T04:51:45.771Z,83.40
2017-04-29T04:54:13.267Z,83.90
2017-04-29T04:56:40.691Z,83.70
2017-04-29T04:59:08.124Z,84.30
2017-04-29T05:01:35.555Z,83.90
2017-04-29T05:04:02.999Z,83.90
2017-04-29T05:06:30.439Z,84.20
2017-04-29T05:08:57.925Z,83.20
2017-04-29T05:11:25.352Z,82.20
2017-04-29T05:13:52.783Z,81.80
2017-04-29T05:16:20.247Z,80.50
2017-04-29T05:18:47.680Z,80.50
2017-04-29T05:21:15.102Z,80.70
2017-04-29T05:23:43.563Z,80.20
2017-04-29T05:26:10.987Z,78.60
2017-04-29T05:28:38.419Z,77.30
2017-04-29T05:31:05.867Z,77.10
2017-04-29T05:33:33.283Z,76.80
2017-04-29T05:36:00.727Z,76.40
2017-04-29T05:38:28.163Z,76.40
2017-04-29T05:40:55.596Z,77.30
2017-04-29T05:43:23.791Z,75.40
2017-04-29T05:45:51.218Z,75.40
2017-04-29T05:48:18.647Z,75.90
2017-04-29T05:50:46.115Z,74.70
2017-04-29T05:53:13.547Z,74.90
2017-04-29T05:55:40.971Z,75.30
2017-04-29T05:58:08.438Z,74.50
2017-04-29T06:00:35.875Z,74.30
2017-04-29T06:03:03.323Z,74.70
2017-04-29T06:05:30.788Z,73.40
2017-04-29T06:07:58.224Z,74.20
2017-04-29T06:10:25.651Z,73.30
2017-04-29T06:12:53.124Z,73.30
2017-04-29T06:15:20.567Z,71.70
2017-04-29T06:17:47.984Z,72.00
2017-04-29T06:20:15.463Z,73.50
2017-04-29T06:22:43.651Z,72.20
2017-04-29T06:25:11.096Z,70.90
2017-04-29T06:27:38.879Z,70.50
2017-04-29T06:30:06.305Z,70.20
2017-04-29T06:32:33.763Z,70.50
2017-04-29T06:35:01.220Z,69.90
2017-04-29T06:37:29.407Z,69.20
2017-04-29T06:39:56.863Z,67.70
2017-04-29T06:42:24.340Z,68.10
2017-04-29T06:44:51.787Z,68.40
2017-04-29T06:47:19.247Z,65.10
2017-04-29T06:49:47.467Z,65.80
2017-04-29T06:52:14.917Z,66.40
2017-04-29T06:54:42.663Z,64.40
2017-04-29T06:57:10.111Z,63.90
2017-04-29T06:59:37.539Z,63.30
2017-04-29T07:02:04.982Z,62.20
2017-04-29T07:04:32.452Z,64.10
2017-04-29T07:06:59.175Z,63.90
2017-04-29T07:09:26.632Z,61.40
2017-04-29T07:11:54.103Z,59.90
2017-04-29T07:14:21.532Z,59.30
2017-04-29T07:16:48.967Z,58.00
2017-04-29T07:19:16.415Z,57.20
2017-04-29T07:21:43.879Z,55.70
2017-04-29T07:24:11.910Z,56.20
2017-04-29T07:26:39.927Z,52.50
2017-04-29T07:29:07.813Z,52.70
2017-04-29T07:31:35.583Z,51.60
2017-04-29T07:34:03.039Z,46.70
2017-04-29T07:36:30.467Z,47.60
2017-04-29T07:38:58.109Z,46.10
2017-04-29T07:41:25.767Z,47.00
2017-04-29T07:43:53.200Z,47.40
2017-04-29T07:46:20.652Z,46.60
2017-04-29T07:48:48.112Z,45.80
2017-04-29T07:51:15.532Z,46.90
2017-04-29T07:53:43.108Z,45.00
2017-04-29T07:56:11.311Z,43.70
2017-04-29T07:58:38.743Z,42.30
2017-04-29T08:01:06.198Z,42.00
2017-04-29T08:03:33.612Z,42.00
2017-04-29T08:06:01.790Z,46.00
2017-04-29T08:08:29.266Z,47.10
2017-04-29T08:10:56.729Z,48.00
2017-04-29T08:13:24.216Z,47.10
2017-04-29T08:15:51.631Z,46.40
2017-04-29T08:18:19.830Z,49.80
2017-04-29T08:20:47.287Z,47.00
2017-04-29T08:23:14.759Z,42.60
2017-04-29T08:25:42.723Z,37.90
2017-04-29T08:28:10.931Z,40.30
2017-04-29T08:30:38.347Z,38.30
2017-04-29T08:33:05.795Z,39.10
2017-04-29T08:35:33.248Z,40.50
2017-04-29T08:38:00.731Z,41.30
2017-04-29T08:40:28.190Z,42.40
2017-04-29T08:42:56.348Z,43.90
2017-04-29T08:45:24.523Z,44.90
2017-04-29T08:47:52.007Z,39.80
2017-04-29T08:50:19.467Z,41.60
2017-04-29T08:52:46.904Z,44.40
2017-04-29T08:55:14.368Z,42.10
2017-04-29T08:57:41.811Z,44.00
2017-04-29T09:00:09.247Z,42.30
2017-04-29T09:02:35.955Z,42.30
2017-04-29T09:05:03.408Z,41.80
2017-04-29T09:07:31.599Z,42.60
2017-04-29T09:09:59.059Z,44.00
2017-04-29T09:12:26.482Z,43.50
2017-04-29T09:14:53.920Z,42.20
2017-04-29T09:17:21.413Z,41.70
2017-04-29T09:19:48.842Z,40.50
2017-04-29T09:22:16.278Z,40.20
2017-04-29T09:24:43.843Z,40.40
2017-04-29T09:27:11.275Z,40.50
2017-04-29T09:29:38.687Z,40.60
2017-04-29T09:32:06.142Z,40.00
2017-04-29T09:34:33.582Z,40.70
2017-04-29T09:37:01.044Z,42.80
2017-04-29T09:39:28.536Z,41.50
2017-04-29T09:41:55.970Z,39.20
2017-04-29T09:44:23.404Z,42.40
2017-04-29T09:46:50.886Z,40.80
2017-04-29T09:49:18.348Z,41.60
2017-04-29T09:51:45.815Z,40.40
2017-04-29T09:54:13.982Z,40.40
2017-04-29T09:56:41.415Z,40.90
2017-04-29T09:59:09.611Z,41.10
2017-04-29T10:01:37.036Z,39.90
2017-04-29T10:04:04.459Z,40.60
2017-04-29T10:06:31.907Z,39.20
2017-04-29T10:08:59.363Z,40.70
2017-04-29T10:11:26.819Z,41.00
2017-04-29T10:13:54.292Z,42.70
2017-04-29T10:16:21.708Z,41.00
2017-04-29T10:18:49.184Z,41.20
2017-04-29T10:21:17.415Z,40.50
2017-04-29T10:23:44.854Z,39.60
2017-04-29T10:26:12.925Z,40.70
2017-04-29T10:28:40.390Z,39.30
2017-04-29T10:31:08.551Z,40.60
2017-04-29T10:33:36.739Z,39.90
2017-04-29T10:36:04.183Z,38.70
2017-04-29T10:38:31.631Z,38.30
2017-04-29T10:40:59.059Z,37.70
2017-04-29T10:43:26.556Z,38.30
2017-04-29T10:45:53.991Z,41.90
2017-04-29T10:48:21.438Z,39.20
2017-04-29T10:50:48.883Z,38.00
2017-04-29T10:53:16.353Z,40.20
2017-04-29T10:55:43.787Z,40.10
2017-04-29T10:58:11.243Z,38.20
2017-04-29T11:00:38.688Z,38.10
2017-04-29T11:03:06.143Z,34.00
2017-04-29T11:05:33.602Z,35.00
2017-04-29T11:08:01.043Z,32.10
2017-04-29T11:10:28.500Z,31.60
2017-04-29T11:12:55.932Z,30.90
2017-04-29T11:15:23.375Z,35.00
2017-04-29T11:17:50.824Z,37.70
2017-04-29T11:20:18.280Z,38.60
2017-04-29T11:22:46.457Z,39.40
2017-04-29T11:25:13.939Z,33.10
2017-04-29T11:27:41.387Z,34.40
2017-04-29T11:30:08.862Z,33.60
2017-04-29T11:32:36.303Z,35.20
2017-04-29T11:35:04.512Z,37.60
2017-04-29T11:37:31.935Z,36.80
2017-04-29T11:39:59.371Z,35.30
2017-04-29T11:42:26.851Z,35.10
2017-04-29T11:44:54.291Z,36.30
2017-04-29T11:47:21.752Z,32.00
2017-04-29T11:49:49.183Z,32.90
2017-04-29T11:52:16.631Z,32.70
2017-04-29T11:54:44.084Z,33.20
2017-04-29T11:57:11.510Z,29.90
2017-04-29T11:59:38.935Z,31.80
2017-04-29T12:02:06.393Z,31.50
2017-04-29T12:04:33.854Z,32.30
2017-04-29T12:07:01.287Z,32.00
2017-04-29T12:09:28.723Z,33.70
2017-04-29T12:11:56.157Z,32.30
2017-04-29T12:14:23.615Z,33.50
2017-04-29T12:16:51.839Z,32.90
2017-04-29T12:19:19.318Z,32.60
2017-04-29T12:21:47.503Z,32.50
2017-04-29T12:24:14.975Z,31.80
2017-04-29T12:26:43.180Z,31.30
2017-04-29T12:29:11.339Z,29.70
2017-04-29T12:31:39.510Z,29.50
2017-04-29T12:34:07.688Z,31.80
2017-04-29T12:36:35.123Z,33.30
2017-04-29T12:39:02.632Z,31.40
2017-04-29T12:41:29.410Z,31.30
2017-04-29T12:43:56.828Z,32.30
2017-04-29T12:46:24.284Z,34.50
2017-04-29T12:48:51.715Z,35.40
2017-04-29T12:51:19.147Z,34.80
2017-04-29T12:53:46.596Z,34.70
2017-04-29T12:56:14.054Z,37.20
2017-04-29T12:58:41.467Z,34.50
2017-04-29T13:01:08.935Z,33.80
2017-04-29T13:03:36.352Z,32.30
2017-04-29T13:06:03.791Z,30.10
2017-04-29T13:08:31.260Z,30.20
2017-04-29T13:10:58.696Z,31.30
2017-04-29T13:13:26.152Z,30.90
2017-04-29T13:15:53.610Z,32.40
2017-04-29T13:18:21.023Z,30.70
2017-04-29T13:20:48.508Z,31.10
2017-04-29T13:23:15.218Z,31.20
2017-04-29T13:25:42.899Z,32.10
2017-04-29T13:28:10.348Z,32.60
2017-04-29T13:30:37.791Z,34.20
2017-04-29T13:33:05.247Z,36.20
2017-04-29T13:35:32.671Z,35.50
2017-04-29T13:38:00.107Z,35.40
2017-04-29T13:40:27.539Z,34.20
2017-04-29T13:42:54.967Z,35.40
2017-04-29T13:45:22.436Z,38.50
2017-04-29T13:47:49.887Z,37.80
2017-04-29T13:50:17.356Z,38.60
2017-04-29T13:52:44.807Z,34.50
2017-04-29T13:55:12.867Z,35.00
2017-04-29T13:57:40.323Z,35.50
2017-04-29T14:00:07.763Z,36.00
2017-04-29T14:02:35.187Z,38.50
2017-04-29T14:05:02.659Z,38.80
2017-04-29T14:07:30.100Z,40.10
2017-04-29T14:09:58.295Z,34.80
2017-04-29T14:12:25.762Z,33.80
2017-04-29T14:14:53.216Z,33.30
2017-04-29T14:17:20.650Z,31.70
2017-04-29T14:19:48.112Z,32.50
2017-04-29T14:22:15.575Z,31.80
2017-04-29T14:24:43.751Z,33.00
2017-04-29T14:27:11.246Z,34.20
2017-04-29T14:29:38.695Z,33.60
2017-04-29T14:32:06.120Z,37.30
2017-04-29T14:34:33.555Z,36.20
2017-04-29T14:37:00.978Z,33.00
2017-04-29T14:39:28.398Z,31.60
2017-04-29T14:41:55.855Z,32.20
2017-04-29T14:44:23.296Z,32.40
2017-04-29T14:46:50.738Z,32.90
2017-04-29T14:49:18.195Z,35.30
2017-04-29T14:51:45.651Z,36.20
2017-04-29T14:54:13.346Z,36.70
2017-04-29T14:56:40.815Z,39.50
2017-04-29T14:59:08.248Z,40.80
2017-04-29T15:01:35.711Z,35.80
2017-04-29T15:04:03.250Z,40.60
2017-04-29T15:06:30.714Z,38.50
2017-04-29T15:08:58.167Z,36.00
2017-04-29T15:11:27.451Z,39.00
2017-04-29T15:13:55.604Z,36.70
2017-04-29T15:16:23.068Z,36.90
2017-04-29T15:18:50.528Z,38.80
2017-04-29T15:21:17.983Z,36.90
2017-04-29T15:23:45.452Z,33.10
2017-04-29T15:26:13.509Z,35.10
2017-04-29T15:28:40.915Z,33.80
2017-04-29T15:31:08.374Z,34.10
2017-04-29T15:33:35.831Z,35.00
2017-04-29T15:36:03.446Z,35.60
2017-04-29T15:38:30.935Z,33.10
2017-04-29T15:40:59.112Z,35.80
2017-04-29T15:43:27.265Z,34.20
2017-04-29T15:45:54.728Z,33.20
2017-04-29T15:48:22.159Z,35.70
2017-04-29T15:50:49.607Z,34.70
2017-04-29T15:53:17.060Z,38.40
2017-04-29T15:55:44.526Z,36.20
2017-04-29T15:58:11.952Z,36.40
2017-04-29T16:00:39.423Z,34.80
2017-04-29T16:03:06.875Z,34.90
2017-04-29T16:05:35.058Z,34.30
2017-04-29T16:08:02.511Z,34.00
2017-04-29T16:10:29.983Z,34.50
2017-04-29T16:12:57.473Z,37.60
2017-04-29T16:15:25.654Z,34.70
2017-04-29T16:17:53.092Z,39.20
2017-04-29T16:20:20.531Z,39.00
2017-04-29T16:22:47.997Z,35.20
2017-04-29T16:25:15.462Z,38.30
2017-04-29T16:27:43.612Z,37.50
2017-04-29T16:30:11.082Z,36.50
2017-04-29T16:32:39.271Z,35.60
2017-04-29T16:35:06.708Z,39.90
2017-04-29T16:37:34.151Z,38.50
2017-04-29T16:40:01.616Z,39.20
2017-04-29T16:42:29.036Z,35.60
2017-04-29T16:44:56.507Z,39.10
2017-04-29T16:47:23.974Z,35.80
2017-04-29T16:49:51.391Z,39.60
2017-04-29T16:52:18.849Z,41.30
2017-04-29T16:54:46.290Z,40.00
2017-04-29T16:57:13.731Z,41.30
2017-04-29T16:59:41.191Z,41.30
2017-04-29T17:02:09.399Z,43.10
2017-04-29T17:04:36.860Z,39.50
2017-04-29T17:07:04.387Z,38.20
2017-04-29T17:09:31.853Z,41.50
2017-04-29T17:12:00.706Z,43.10
2017-04-29T17:14:28.247Z,43.50
2017-04-29T17:16:55.725Z,44.10
2017-04-29T17:19:23.179Z,40.90
2017-04-29T17:21:51.363Z,43.10
2017-04-29T17:24:18.807Z,42.60
2017-04-29T17:26:46.280Z,41.90
2017-04-29T17:29:13.760Z,42.80
2017-04-29T17:31:41.188Z,42.30
2017-04-29T17:34:08.659Z,41.70
2017-04-29T17:36:36.114Z,42.40
2017-04-29T17:39:03.613Z,42.50
2017-04-29T17:41:31.046Z,45.00
2017-04-29T17:43:58.475Z,43.00
2017-04-29T17:46:25.927Z,44.20
2017-04-29T17:48:53.369Z,44.40
2017-04-29T17:51:20.819Z,44.60
2017-04-29T17:53:49.008Z,43.90
2017-04-29T17:56:16.489Z,46.90
2017-04-29T17:58:43.944Z,45.10
2017-04-29T18:01:11.403Z,46.90
2017-04-29T18:03:39.611Z,46.00
2017-04-29T18:06:07.043Z,48.00
2017-04-29T18:08:34.479Z,48.00
2017-04-29T18:11:01.919Z,47.40
2017-04-29T18:13:29.366Z,47.30
2017-04-29T18:15:56.799Z,48.10
2017-04-29T18:18:24.263Z,48.20
2017-04-29T18:20:51.729Z,48.40
2017-04-29T18:23:19.164Z,48.60
2017-04-29T18:25:46.616Z,49.20
2017-04-29T18:28:14.055Z,47.80
2017-04-29T18:30:41.482Z,47.90
2017-04-29T18:33:08.937Z,48.50
2017-04-29T18:35:36.424Z,47.70
2017-04-29T18:38:03.920Z,47.60
2017-04-29T18:40:31.365Z,48.20
2017-04-29T18:42:58.803Z,48.80
2017-04-29T18:45:26.275Z,49.70
2017-04-29T18:47:53.733Z,49.20
2017-04-29T18:50:21.175Z,50.00
2017-04-29T18:52:48.616Z,49.00
2017-04-29T18:55:16.095Z,49.60
2017-04-29T18:57:43.786Z,50.90
2017-04-29T19:00:12.000Z,50.70
2017-04-29T19:02:39.453Z,51.00
2017-04-29T19:05:06.896Z,50.90
2017-04-29T19:07:34.335Z,51.60
2017-04-29T19:10:01.787Z,51.60
2017-04-29T19:12:29.247Z,51.20
2017-04-29T19:14:57.423Z,51.80
2017-04-29T19:17:24.891Z,52.80
2017-04-29T19:19:52.319Z,53.00
2017-04-29T19:22:19.776Z,52.00
2017-04-29T19:24:47.220Z,52.30
2017-04-29T19:27:14.678Z,52.50
2017-04-29T19:29:42.171Z,52.60
2017-04-29T19:32:09.963Z,53.20
2017-04-29T19:34:37.399Z,53.40
2017-04-29T19:37:04.807Z,53.90
2017-04-29T19:39:32.271Z,53.20
2017-04-29T19:41:59.768Z,53.40
2017-04-29T19:44:27.941Z,54.20
2017-04-29T19:46:55.403Z,54.30
2017-04-29T19:49:22.871Z,54.70
2017-04-29T19:51:50.327Z,55.60
2017-04-29T19:54:18.176Z,57.00
2017-04-29T19:56:45.652Z,56.80
2017-04-29T19:59:13.491Z,57.00
2017-04-29T20:01:41.002Z,56.90
2017-04-29T20:04:08.499Z,56.90
2017-04-29T20:06:36.064Z,57.00
2017-04-29T20:09:03.633Z,57.30
2017-04-29T20:11:31.416Z,58.40
2017-04-29T20:13:59.132Z,58.40
2017-04-29T20:16:27.005Z,58.30
2017-04-29T20:18:54.530Z,58.20
2017-04-29T20:21:22.004Z,58.00
2017-04-29T20:23:49.471Z,57.80
2017-04-29T20:26:16.921Z,58.30
2017-04-29T20:28:44.392Z,59.30
2017-04-29T20:31:11.922Z,59.90
2017-04-29T20:33:39.398Z,59.00
2017-04-29T20:36:07.576Z,58.50
2017-04-29T20:38:35.080Z,59.70
2017-04-29T20:41:02.551Z,60.00
2017-04-29T20:43:29.984Z,59.30
2017-04-29T20:45:58.203Z,60.00
2017-04-29T20:48:25.737Z,59.50
2017-04-29T20:50:53.183Z,59.30
2017-04-29T20:53:20.638Z,60.30
2017-04-29T20:55:48.079Z,59.80
2017-04-29T20:58:14.779Z,59.60
2017-04-29T21:00:42.510Z,58.30
2017-04-29T21:03:09.987Z,58.10
2017-04-29T21:05:37.426Z,57.40
2017-04-29T21:08:04.904Z,57.70
2017-04-29T21:10:32.348Z,56.30
2017-04-29T21:12:59.796Z,56.30
2017-04-29T21:15:27.275Z,55.30
2017-04-29T21:17:54.723Z,55.40
2017-04-29T21:20:22.186Z,54.60
2017-04-29T21:22:50.755Z,54.30
2017-04-29T21:25:20.072Z,54.30
2017-04-29T21:27:47.567Z,55.00
2017-04-29T21:30:15.106Z,53.50
2017-04-29T21:32:44.019Z,54.20
2017-04-29T21:35:12.844Z,53.60
2017-04-29T21:37:40.323Z,52.50
2017-04-29T21:40:08.530Z,52.40
2017-04-29T21:42:36.020Z,53.00
2017-04-29T21:45:04.238Z,52.40
2017-04-29T21:47:31.684Z,52.60
2017-04-29T21:49:59.131Z,51.70
2017-04-29T21:52:26.615Z,52.30
2017-04-29T21:54:54.803Z,51.90
2017-04-29T21:57:22.232Z,51.60
2017-04-29T21:59:49.714Z,51.50
2017-04-29T22:02:17.139Z,51.40
2017-04-29T22:04:44.574Z,51.20
2017-04-29T22:07:12.036Z,51.50
2017-04-29T22:09:39.484Z,51.80
2017-04-29T22:12:06.902Z,51.60
2017-04-29T22:14:34.383Z,52.00
2017-04-29T22:17:01.832Z,49.80
2017-04-29T22:19:30.051Z,51.40
2017-04-29T22:21:57.495Z,50.80
2017-04-29T22:24:24.931Z,51.00
2017-04-29T22:26:52.374Z,49.20
2017-04-29T22:29:19.831Z,50.30
2017-04-29T22:31:47.263Z,50.10
2017-04-29T22:34:14.758Z,49.60
2017-04-29T22:36:42.878Z,49.40
2017-04-29T22:39:10.352Z,48.10
2017-04-29T22:41:37.843Z,49.40
2017-04-29T22:44:05.287Z,49.00
2017-04-29T22:46:32.714Z,49.00
2017-04-29T22:49:00.307Z,49.10
2017-04-29T22:51:28.491Z,49.40
2017-04-29T22:53:56.415Z,49.10
2017-04-29T22:56:24.039Z,49.70
2017-04-29T22:58:51.730Z,49.30
2017-04-29T23:01:19.195Z,48.60
2017-04-29T23:03:46.631Z,50.00
2017-04-29T23:06:14.082Z,49.60
2017-04-29T23:08:45.587Z,48.40
2017-04-29T23:11:13.063Z,50.10
2017-04-29T23:13:40.543Z,50.00
2017-04-29T23:16:07.995Z,50.30
2017-04-29T23:18:35.512Z,50.80
2017-04-29T23:21:02.944Z,50.10
2017-04-29T23:23:30.536Z,50.00
2017-04-29T23:25:57.966Z,48.60
2017-04-29T23:28:25.427Z,49.70
2017-04-29T23:30:52.911Z,50.40
2017-04-29T23:33:20.347Z,50.20
2017-04-29T23:35:47.974Z,50.20
2017-04-29T23:38:15.427Z,50.70
2017-04-29T23:40:43.468Z,49.90
2017-04-29T23:43:10.927Z,49.80
2017-04-29T23:45:38.394Z,50.40
2017-04-29T23:48:09.071Z,49.10
2017-04-29T23:50:36.523Z,51.00
2017-04-29T23:53:03.991Z,49.90
2017-04-29T23:55:31.477Z,50.10
2017-04-29T23:57:58.890Z,50.80
